sensor_id;sensor_type;location;lat;lon;timestamp;P1;P2;P0
53634;PMS5003;39542;-34.932;138.594;2022-12-24T00:00:04;3.0;3.0;
53634;PMS5003;39542;-34.932;138.594;2022-12-24T00:00:40;6.0;6.0;
53634;PMS5003;39542;-34.932;138.594;2022-12-24T00:01:15;3.0;3.0;
53634;PMS5003;39542;-34.932;138.594;2022-12-24T00:01:49;4.0;4.0;
53634;PMS5003;39542;-34.932;138.594;2022-12-24T00:02:23;4.0;4.0;
53634;PMS5003;39542;-34.932;138.594;2022-12-24T00:02:58;3.0;3.0;
53634;PMS5003;39542;-34.932;138.594;2022-12-24T00:03:33;6.0;4.0;
53634;PMS5003;39542;-34.932;138.594;2022-12-24T00:04:09;3.0;3.0;
53634;PMS5003;39542;-34.932;138.594;2022-12-24T00:04:44;5.0;5.0;
53634;PMS5003;39542;-34.932;138.594;2022-12-24T00:05:19;2.0;2.0;
53634;PMS5003;39542;-34.932;138.594;2022-12-24T00:05:53;2.0;2.0;
53634;PMS5003;39542;-34.932;138.594;2022-12-24T00:06:27;3.0;3.0;
53634;PMS5003;39542;-34.932;138.594;2022-12-24T00:07:02;2.0;2.0;
53634;PMS5003;39542;-34.932;138.594;2022-12-24T00:07:37;4.0;4.0;
53634;PMS5003;39542;-34.932;138.594;2022-12-24T00:08:12;2.0;2.0;
53634;PMS5003;39542;-34.932;138.594;2022-12-24T00:08:46;1.0;1.0;
53634;PMS5003;39542;-34.932;138.594;2022-12-24T00:09:21;3.0;3.0;
53634;PMS5003;39542;-34.932;138.594;2022-12-24T00:09:56;2.0;2.0;
53634;PMS5003;39542;-34.932;138.594;2022-12-24T00:10:31;4.0;4.0;
53634;PMS5003;39542;-34.932;138.594;2022-12-24T00:11:06;4.0;4.0;
53634;PMS5003;39542;-34.932;138.594;2022-12-24T00:11:41;4.0;4.0;
53634;PMS5003;39542;-34.932;138.594;2022-12-24T00:12:16;3.0;3.0;
53634;PMS5003;39542;-34.932;138.594;2022-12-24T00:12:51;3.0;3.0;
53634;PMS5003;39542;-34.932;138.594;2022-12-24T00:13:25;4.0;4.0;
53634;PMS5003;39542;-34.932;138.594;2022-12-24T00:14:00;5.0;4.0;
53634;PMS5003;39542;-34.932;138.594;2022-12-24T00:14:34;4.0;4.0;
53634;PMS5003;39542;-34.932;138.594;2022-12-24T00:15:09;3.0;3.0;
53634;PMS5003;39542;-34.932;138.594;2022-12-24T00:15:44;3.0;3.0;
53634;PMS5003;39542;-34.932;138.594;2022-12-24T00:16:19;5.0;4.0;
53634;PMS5003;39542;-34.932;138.594;2022-12-24T00:16:54;5.0;5.0;
53634;PMS5003;39542;-34.932;138.594;2022-12-24T00:17:29;4.0;3.0;
53634;PMS5003;39542;-34.932;138.594;2022-12-24T00:18:03;2.0;2.0;
53634;PMS5003;39542;-34.932;138.594;2022-12-24T00:18:38;2.0;2.0;
53634;PMS5003;39542;-34.932;138.594;2022-12-24T00:19:12;4.0;4.0;
53634;PMS5003;39542;-34.932;138.594;2022-12-24T00:19:47;4.0;4.0;
53634;PMS5003;39542;-34.932;138.594;2022-12-24T00:20:21;2.0;2.0;
53634;PMS5003;39542;-34.932;138.594;2022-12-24T00:20:56;4.0;4.0;
53634;PMS5003;39542;-34.932;138.594;2022-12-24T00:21:31;3.0;3.0;
53634;PMS5003;39542;-34.932;138.594;2022-12-24T00:22:06;5.0;4.0;
53634;PMS5003;39542;-34.932;138.594;2022-12-24T00:22:41;7.0;5.0;
53634;PMS5003;39542;-34.932;138.594;2022-12-24T00:23:15;3.0;3.0;
53634;PMS5003;39542;-34.932;138.594;2022-12-24T00:23:51;4.0;4.0;
53634;PMS5003;39542;-34.932;138.594;2022-12-24T00:24:25;3.0;3.0;
53634;PMS5003;39542;-34.932;138.594;2022-12-24T00:25:00;5.0;5.0;
53634;PMS5003;39542;-34.932;138.594;2022-12-24T00:25:36;4.0;3.0;
53634;PMS5003;39542;-34.932;138.594;2022-12-24T00:26:11;4.0;4.0;
53634;PMS5003;39542;-34.932;138.594;2022-12-24T00:26:46;3.0;3.0;
53634;PMS5003;39542;-34.932;138.594;2022-12-24T00:27:21;3.0;3.0;
53634;PMS5003;39542;-34.932;138.594;2022-12-24T00:27:55;4.0;4.0;
53634;PMS5003;39542;-34.932;138.594;2022-12-24T00:28:30;4.0;4.0;
53634;PMS5003;39542;-34.932;138.594;2022-12-24T00:29:05;3.0;3.0;
53634;PMS5003;39542;-34.932;138.594;2022-12-24T00:29:41;5.0;5.0;
53634;PMS5003;39542;-34.932;138.594;2022-12-24T00:30:16;3.0;3.0;
53634;PMS5003;39542;-34.932;138.594;2022-12-24T00:30:51;5.0;5.0;
53634;PMS5003;39542;-34.932;138.594;2022-12-24T00:31:25;14.0;8.0;
53634;PMS5003;39542;-34.932;138.594;2022-12-24T00:32:01;5.0;5.0;
53634;PMS5003;39542;-34.932;138.594;2022-12-24T00:32:35;3.0;3.0;
53634;PMS5003;39542;-34.932;138.594;2022-12-24T00:33:09;5.0;5.0;
53634;PMS5003;39542;-34.932;138.594;2022-12-24T00:33:44;5.0;4.0;
53634;PMS5003;39542;-34.932;138.594;2022-12-24T00:34:21;4.0;4.0;
53634;PMS5003;39542;-34.932;138.594;2022-12-24T00:34:56;4.0;4.0;
53634;PMS5003;39542;-34.932;138.594;2022-12-24T00:35:34;5.0;5.0;
53634;PMS5003;39542;-34.932;138.594;2022-12-24T00:36:09;3.0;3.0;
53634;PMS5003;39542;-34.932;138.594;2022-12-24T00:36:44;5.0;5.0;
53634;PMS5003;39542;-34.932;138.594;2022-12-24T00:37:18;5.0;5.0;
53634;PMS5003;39542;-34.932;138.594;2022-12-24T00:37:53;7.0;7.0;
53634;PMS5003;39542;-34.932;138.594;2022-12-24T00:38:29;5.0;5.0;
53634;PMS5003;39542;-34.932;138.594;2022-12-24T00:39:04;4.0;4.0;
53634;PMS5003;39542;-34.932;138.594;2022-12-24T00:39:38;4.0;3.0;
53634;PMS5003;39542;-34.932;138.594;2022-12-24T00:40:13;4.0;4.0;
53634;PMS5003;39542;-34.932;138.594;2022-12-24T00:40:48;5.0;5.0;
53634;PMS5003;39542;-34.932;138.594;2022-12-24T00:41:23;3.0;3.0;
53634;PMS5003;39542;-34.932;138.594;2022-12-24T00:41:58;4.0;4.0;
53634;PMS5003;39542;-34.932;138.594;2022-12-24T00:42:33;4.0;4.0;
53634;PMS5003;39542;-34.932;138.594;2022-12-24T00:43:08;6.0;4.0;
53634;PMS5003;39542;-34.932;138.594;2022-12-24T00:43:42;6.0;4.0;
53634;PMS5003;39542;-34.932;138.594;2022-12-24T00:44:17;3.0;3.0;
53634;PMS5003;39542;-34.932;138.594;2022-12-24T00:44:51;6.0;5.0;
53634;PMS5003;39542;-34.932;138.594;2022-12-24T00:45:26;5.0;5.0;
53634;PMS5003;39542;-34.932;138.594;2022-12-24T00:46:01;5.0;4.0;
53634;PMS5003;39542;-34.932;138.594;2022-12-24T00:46:37;2.0;2.0;
53634;PMS5003;39542;-34.932;138.594;2022-12-24T00:47:12;3.0;3.0;
53634;PMS5003;39542;-34.932;138.594;2022-12-24T00:47:47;4.0;4.0;
53634;PMS5003;39542;-34.932;138.594;2022-12-24T00:48:22;5.0;4.0;
53634;PMS5003;39542;-34.932;138.594;2022-12-24T00:48:56;6.0;6.0;
53634;PMS5003;39542;-34.932;138.594;2022-12-24T00:49:30;7.0;6.0;
53634;PMS5003;39542;-34.932;138.594;2022-12-24T00:50:05;4.0;4.0;
53634;PMS5003;39542;-34.932;138.594;2022-12-24T00:50:40;6.0;5.0;
53634;PMS5003;39542;-34.932;138.594;2022-12-24T00:51:14;4.0;4.0;
53634;PMS5003;39542;-34.932;138.594;2022-12-24T00:51:49;5.0;5.0;
53634;PMS5003;39542;-34.932;138.594;2022-12-24T00:52:24;4.0;3.0;
53634;PMS5003;39542;-34.932;138.594;2022-12-24T00:52:59;4.0;4.0;
53634;PMS5003;39542;-34.932;138.594;2022-12-24T00:53:35;3.0;3.0;
53634;PMS5003;39542;-34.932;138.594;2022-12-24T00:54:10;5.0;5.0;
53634;PMS5003;39542;-34.932;138.594;2022-12-24T00:54:46;4.0;3.0;
53634;PMS5003;39542;-34.932;138.594;2022-12-24T00:55:20;4.0;4.0;
53634;PMS5003;39542;-34.932;138.594;2022-12-24T00:55:56;4.0;4.0;
53634;PMS5003;39542;-34.932;138.594;2022-12-24T00:56:32;3.0;3.0;
53634;PMS5003;39542;-34.932;138.594;2022-12-24T00:57:07;4.0;4.0;
53634;PMS5003;39542;-34.932;138.594;2022-12-24T00:57:41;4.0;4.0;
53634;PMS5003;39542;-34.932;138.594;2022-12-24T00:58:17;4.0;4.0;
53634;PMS5003;39542;-34.932;138.594;2022-12-24T00:58:52;5.0;5.0;
53634;PMS5003;39542;-34.932;138.594;2022-12-24T00:59:27;5.0;5.0;
53634;PMS5003;39542;-34.932;138.594;2022-12-24T01:00:03;7.0;6.0;
53634;PMS5003;39542;-34.932;138.594;2022-12-24T01:00:38;4.0;4.0;
53634;PMS5003;39542;-34.932;138.594;2022-12-24T01:01:13;7.0;4.0;
53634;PMS5003;39542;-34.932;138.594;2022-12-24T01:01:48;4.0;3.0;
53634;PMS5003;39542;-34.932;138.594;2022-12-24T01:02:22;5.0;5.0;
53634;PMS5003;39542;-34.932;138.594;2022-12-24T01:02:57;6.0;6.0;
53634;PMS5003;39542;-34.932;138.594;2022-12-24T01:03:32;4.0;4.0;
53634;PMS5003;39542;-34.932;138.594;2022-12-24T01:04:06;3.0;3.0;
53634;PMS5003;39542;-34.932;138.594;2022-12-24T01:04:41;3.0;3.0;
53634;PMS5003;39542;-34.932;138.594;2022-12-24T01:05:15;3.0;3.0;
53634;PMS5003;39542;-34.932;138.594;2022-12-24T01:05:51;3.0;3.0;
53634;PMS5003;39542;-34.932;138.594;2022-12-24T01:06:26;4.0;4.0;
53634;PMS5003;39542;-34.932;138.594;2022-12-24T01:07:00;3.0;3.0;
53634;PMS5003;39542;-34.932;138.594;2022-12-24T01:07:35;4.0;4.0;
53634;PMS5003;39542;-34.932;138.594;2022-12-24T01:08:10;4.0;4.0;
53634;PMS5003;39542;-34.932;138.594;2022-12-24T01:08:45;4.0;4.0;
53634;PMS5003;39542;-34.932;138.594;2022-12-24T01:09:22;5.0;5.0;
53634;PMS5003;39542;-34.932;138.594;2022-12-24T01:09:57;3.0;3.0;
53634;PMS5003;39542;-34.932;138.594;2022-12-24T01:10:32;4.0;4.0;
53634;PMS5003;39542;-34.932;138.594;2022-12-24T01:11:06;6.0;5.0;
53634;PMS5003;39542;-34.932;138.594;2022-12-24T01:11:42;3.0;3.0;
53634;PMS5003;39542;-34.932;138.594;2022-12-24T01:12:17;4.0;4.0;
53634;PMS5003;39542;-34.932;138.594;2022-12-24T01:12:52;2.0;2.0;
53634;PMS5003;39542;-34.932;138.594;2022-12-24T01:13:27;4.0;4.0;
53634;PMS5003;39542;-34.932;138.594;2022-12-24T01:14:02;6.0;6.0;
53634;PMS5003;39542;-34.932;138.594;2022-12-24T01:14:36;3.0;2.0;
53634;PMS5003;39542;-34.932;138.594;2022-12-24T01:15:11;3.0;3.0;
53634;PMS5003;39542;-34.932;138.594;2022-12-24T01:15:46;5.0;5.0;
53634;PMS5003;39542;-34.932;138.594;2022-12-24T01:16:21;4.0;4.0;
53634;PMS5003;39542;-34.932;138.594;2022-12-24T01:16:55;4.0;4.0;
53634;PMS5003;39542;-34.932;138.594;2022-12-24T01:17:31;6.0;6.0;
53634;PMS5003;39542;-34.932;138.594;2022-12-24T01:18:07;4.0;4.0;
53634;PMS5003;39542;-34.932;138.594;2022-12-24T01:18:41;4.0;4.0;
53634;PMS5003;39542;-34.932;138.594;2022-12-24T01:19:16;4.0;4.0;
53634;PMS5003;39542;-34.932;138.594;2022-12-24T01:19:51;6.0;4.0;
53634;PMS5003;39542;-34.932;138.594;2022-12-24T01:20:26;5.0;5.0;
53634;PMS5003;39542;-34.932;138.594;2022-12-24T01:21:01;5.0;4.0;
53634;PMS5003;39542;-34.932;138.594;2022-12-24T01:21:36;5.0;5.0;
53634;PMS5003;39542;-34.932;138.594;2022-12-24T01:22:11;3.0;3.0;
53634;PMS5003;39542;-34.932;138.594;2022-12-24T01:22:46;4.0;4.0;
53634;PMS5003;39542;-34.932;138.594;2022-12-24T01:23:21;5.0;3.0;
53634;PMS5003;39542;-34.932;138.594;2022-12-24T01:23:55;3.0;3.0;
53634;PMS5003;39542;-34.932;138.594;2022-12-24T01:24:30;4.0;3.0;
53634;PMS5003;39542;-34.932;138.594;2022-12-24T01:25:04;5.0;5.0;
53634;PMS5003;39542;-34.932;138.594;2022-12-24T01:25:39;5.0;5.0;
53634;PMS5003;39542;-34.932;138.594;2022-12-24T01:26:14;3.0;3.0;
53634;PMS5003;39542;-34.932;138.594;2022-12-24T01:26:49;6.0;6.0;
53634;PMS5003;39542;-34.932;138.594;2022-12-24T01:27:24;4.0;4.0;
53634;PMS5003;39542;-34.932;138.594;2022-12-24T01:27:59;4.0;4.0;
53634;PMS5003;39542;-34.932;138.594;2022-12-24T01:28:33;4.0;4.0;
53634;PMS5003;39542;-34.932;138.594;2022-12-24T01:29:08;3.0;3.0;
53634;PMS5003;39542;-34.932;138.594;2022-12-24T01:29:43;5.0;3.0;
53634;PMS5003;39542;-34.932;138.594;2022-12-24T01:30:18;7.0;5.0;
53634;PMS5003;39542;-34.932;138.594;2022-12-24T01:30:52;3.0;3.0;
53634;PMS5003;39542;-34.932;138.594;2022-12-24T01:31:26;5.0;5.0;
53634;PMS5003;39542;-34.932;138.594;2022-12-24T01:32:01;6.0;6.0;
53634;PMS5003;39542;-34.932;138.594;2022-12-24T01:32:36;6.0;6.0;
53634;PMS5003;39542;-34.932;138.594;2022-12-24T01:33:11;3.0;3.0;
53634;PMS5003;39542;-34.932;138.594;2022-12-24T01:33:47;4.0;4.0;
53634;PMS5003;39542;-34.932;138.594;2022-12-24T01:34:22;4.0;3.0;
53634;PMS5003;39542;-34.932;138.594;2022-12-24T01:34:56;4.0;4.0;
53634;PMS5003;39542;-34.932;138.594;2022-12-24T01:35:31;4.0;4.0;
53634;PMS5003;39542;-34.932;138.594;2022-12-24T01:36:06;6.0;6.0;
53634;PMS5003;39542;-34.932;138.594;2022-12-24T01:36:41;4.0;4.0;
53634;PMS5003;39542;-34.932;138.594;2022-12-24T01:37:16;5.0;5.0;
53634;PMS5003;39542;-34.932;138.594;2022-12-24T01:37:51;5.0;5.0;
53634;PMS5003;39542;-34.932;138.594;2022-12-24T01:38:26;5.0;5.0;
53634;PMS5003;39542;-34.932;138.594;2022-12-24T01:39:00;5.0;5.0;
53634;PMS5003;39542;-34.932;138.594;2022-12-24T01:39:34;4.0;4.0;
53634;PMS5003;39542;-34.932;138.594;2022-12-24T01:40:11;4.0;4.0;
53634;PMS5003;39542;-34.932;138.594;2022-12-24T01:40:49;6.0;6.0;
53634;PMS5003;39542;-34.932;138.594;2022-12-24T01:41:23;5.0;5.0;
53634;PMS5003;39542;-34.932;138.594;2022-12-24T01:41:58;4.0;4.0;
53634;PMS5003;39542;-34.932;138.594;2022-12-24T01:42:32;6.0;6.0;
53634;PMS5003;39542;-34.932;138.594;2022-12-24T01:43:10;5.0;5.0;
53634;PMS5003;39542;-34.932;138.594;2022-12-24T01:43:50;5.0;5.0;
53634;PMS5003;39542;-34.932;138.594;2022-12-24T01:44:26;7.0;7.0;
53634;PMS5003;39542;-34.932;138.594;2022-12-24T01:45:22;6.0;6.0;
53634;PMS5003;39542;-34.932;138.594;2022-12-24T01:46:14;6.0;6.0;
53634;PMS5003;39542;-34.932;138.594;2022-12-24T01:46:53;5.0;5.0;
53634;PMS5003;39542;-34.932;138.594;2022-12-24T01:47:35;5.0;4.0;
53634;PMS5003;39542;-34.932;138.594;2022-12-24T01:48:12;4.0;4.0;
53634;PMS5003;39542;-34.932;138.594;2022-12-24T01:48:51;4.0;4.0;
53634;PMS5003;39542;-34.932;138.594;2022-12-24T01:49:29;4.0;4.0;
53634;PMS5003;39542;-34.932;138.594;2022-12-24T01:50:12;7.0;5.0;
53634;PMS5003;39542;-34.932;138.594;2022-12-24T01:50:49;4.0;4.0;
53634;PMS5003;39542;-34.932;138.594;2022-12-24T01:51:29;4.0;4.0;
53634;PMS5003;39542;-34.932;138.594;2022-12-24T01:52:09;4.0;4.0;
53634;PMS5003;39542;-34.932;138.594;2022-12-24T01:52:47;4.0;4.0;
53634;PMS5003;39542;-34.932;138.594;2022-12-24T01:53:22;6.0;6.0;
53634;PMS5003;39542;-34.932;138.594;2022-12-24T01:53:58;5.0;5.0;
53634;PMS5003;39542;-34.932;138.594;2022-12-24T01:54:40;5.0;5.0;
53634;PMS5003;39542;-34.932;138.594;2022-12-24T01:55:19;5.0;5.0;
53634;PMS5003;39542;-34.932;138.594;2022-12-24T01:55:55;5.0;5.0;
53634;PMS5003;39542;-34.932;138.594;2022-12-24T01:56:30;6.0;5.0;
53634;PMS5003;39542;-34.932;138.594;2022-12-24T01:57:08;4.0;4.0;
53634;PMS5003;39542;-34.932;138.594;2022-12-24T01:57:48;5.0;3.0;
53634;PMS5003;39542;-34.932;138.594;2022-12-24T01:58:27;6.0;6.0;
53634;PMS5003;39542;-34.932;138.594;2022-12-24T01:59:04;7.0;7.0;
53634;PMS5003;39542;-34.932;138.594;2022-12-24T01:59:41;8.0;8.0;
53634;PMS5003;39542;-34.932;138.594;2022-12-24T02:00:20;8.0;8.0;
53634;PMS5003;39542;-34.932;138.594;2022-12-24T02:00:55;8.0;8.0;
53634;PMS5003;39542;-34.932;138.594;2022-12-24T02:01:30;7.0;7.0;
53634;PMS5003;39542;-34.932;138.594;2022-12-24T02:02:05;9.0;9.0;
53634;PMS5003;39542;-34.932;138.594;2022-12-24T02:02:40;11.0;11.0;
53634;PMS5003;39542;-34.932;138.594;2022-12-24T02:03:17;16.0;16.0;
53634;PMS5003;39542;-34.932;138.594;2022-12-24T02:03:52;15.0;15.0;
53634;PMS5003;39542;-34.932;138.594;2022-12-24T02:04:30;13.0;13.0;
53634;PMS5003;39542;-34.932;138.594;2022-12-24T02:05:10;15.0;15.0;
53634;PMS5003;39542;-34.932;138.594;2022-12-24T02:05:47;22.0;22.0;
53634;PMS5003;39542;-34.932;138.594;2022-12-24T02:06:24;48.0;46.0;
53634;PMS5003;39542;-34.932;138.594;2022-12-24T02:06:59;44.0;42.0;
53634;PMS5003;39542;-34.932;138.594;2022-12-24T02:07:34;38.0;37.0;
53634;PMS5003;39542;-34.932;138.594;2022-12-24T02:08:09;34.0;34.0;
53634;PMS5003;39542;-34.932;138.594;2022-12-24T02:08:45;38.0;37.0;
53634;PMS5003;39542;-34.932;138.594;2022-12-24T02:09:20;41.0;39.0;
53634;PMS5003;39542;-34.932;138.594;2022-12-24T02:09:56;36.0;34.0;
53634;PMS5003;39542;-34.932;138.594;2022-12-24T02:10:32;38.0;38.0;
53634;PMS5003;39542;-34.932;138.594;2022-12-24T02:11:10;40.0;38.0;
53634;PMS5003;39542;-34.932;138.594;2022-12-24T02:11:46;34.0;34.0;
53634;PMS5003;39542;-34.932;138.594;2022-12-24T02:12:21;35.0;33.0;
53634;PMS5003;39542;-34.932;138.594;2022-12-24T02:12:56;30.0;30.0;
53634;PMS5003;39542;-34.932;138.594;2022-12-24T02:13:32;30.0;30.0;
53634;PMS5003;39542;-34.932;138.594;2022-12-24T02:14:06;33.0;33.0;
53634;PMS5003;39542;-34.932;138.594;2022-12-24T02:14:43;32.0;31.0;
53634;PMS5003;39542;-34.932;138.594;2022-12-24T02:15:17;33.0;32.0;
53634;PMS5003;39542;-34.932;138.594;2022-12-24T02:15:55;31.0;30.0;
53634;PMS5003;39542;-34.932;138.594;2022-12-24T02:16:40;33.0;31.0;
53634;PMS5003;39542;-34.932;138.594;2022-12-24T02:17:24;29.0;29.0;
53634;PMS5003;39542;-34.932;138.594;2022-12-24T02:18:07;25.0;24.0;
53634;PMS5003;39542;-34.932;138.594;2022-12-24T02:18:52;22.0;22.0;
53634;PMS5003;39542;-34.932;138.594;2022-12-24T02:19:41;24.0;24.0;
53634;PMS5003;39542;-34.932;138.594;2022-12-24T02:20:42;22.0;21.0;
53634;PMS5003;39542;-34.932;138.594;2022-12-24T02:22:28;13.0;13.0;
53634;PMS5003;39542;-34.932;138.594;2022-12-24T02:23:33;16.0;16.0;
53634;PMS5003;39542;-34.932;138.594;2022-12-24T02:24:45;19.0;19.0;
53634;PMS5003;39542;-34.932;138.594;2022-12-24T02:25:45;15.0;15.0;
53634;PMS5003;39542;-34.932;138.594;2022-12-24T02:26:37;16.0;16.0;
53634;PMS5003;39542;-34.932;138.594;2022-12-24T02:27:26;15.0;15.0;
53634;PMS5003;39542;-34.932;138.594;2022-12-24T02:28:15;12.0;12.0;
53634;PMS5003;39542;-34.932;138.594;2022-12-24T02:29:08;15.0;15.0;
53634;PMS5003;39542;-34.932;138.594;2022-12-24T02:29:58;13.0;12.0;
53634;PMS5003;39542;-34.932;138.594;2022-12-24T02:30:38;15.0;15.0;
53634;PMS5003;39542;-34.932;138.594;2022-12-24T02:31:18;15.0;13.0;
53634;PMS5003;39542;-34.932;138.594;2022-12-24T02:31:59;14.0;13.0;
53634;PMS5003;39542;-34.932;138.594;2022-12-24T02:32:38;12.0;12.0;
53634;PMS5003;39542;-34.932;138.594;2022-12-24T02:33:22;13.0;13.0;
53634;PMS5003;39542;-34.932;138.594;2022-12-24T02:34:02;12.0;12.0;
53634;PMS5003;39542;-34.932;138.594;2022-12-24T02:34:46;12.0;11.0;
53634;PMS5003;39542;-34.932;138.594;2022-12-24T02:35:31;11.0;9.0;
53634;PMS5003;39542;-34.932;138.594;2022-12-24T02:36:14;6.0;6.0;
53634;PMS5003;39542;-34.932;138.594;2022-12-24T02:36:58;12.0;12.0;
53634;PMS5003;39542;-34.932;138.594;2022-12-24T02:37:36;12.0;12.0;
53634;PMS5003;39542;-34.932;138.594;2022-12-24T02:38:16;12.0;12.0;
53634;PMS5003;39542;-34.932;138.594;2022-12-24T02:38:57;12.0;12.0;
53634;PMS5003;39542;-34.932;138.594;2022-12-24T02:39:38;13.0;11.0;
53634;PMS5003;39542;-34.932;138.594;2022-12-24T02:40:17;13.0;13.0;
53634;PMS5003;39542;-34.932;138.594;2022-12-24T02:40:55;11.0;11.0;
53634;PMS5003;39542;-34.932;138.594;2022-12-24T02:41:35;9.0;9.0;
53634;PMS5003;39542;-34.932;138.594;2022-12-24T02:42:14;8.0;8.0;
53634;PMS5003;39542;-34.932;138.594;2022-12-24T02:42:53;8.0;8.0;
53634;PMS5003;39542;-34.932;138.594;2022-12-24T02:43:31;9.0;9.0;
53634;PMS5003;39542;-34.932;138.594;2022-12-24T02:44:09;8.0;8.0;
53634;PMS5003;39542;-34.932;138.594;2022-12-24T02:44:46;9.0;9.0;
53634;PMS5003;39542;-34.932;138.594;2022-12-24T02:45:26;6.0;6.0;
53634;PMS5003;39542;-34.932;138.594;2022-12-24T02:46:03;8.0;6.0;
53634;PMS5003;39542;-34.932;138.594;2022-12-24T02:46:42;9.0;9.0;
53634;PMS5003;39542;-34.932;138.594;2022-12-24T02:47:17;8.0;8.0;
53634;PMS5003;39542;-34.932;138.594;2022-12-24T02:47:56;8.0;8.0;
53634;PMS5003;39542;-34.932;138.594;2022-12-24T02:48:32;8.0;8.0;
53634;PMS5003;39542;-34.932;138.594;2022-12-24T02:49:11;11.0;10.0;
53634;PMS5003;39542;-34.932;138.594;2022-12-24T02:49:46;7.0;7.0;
53634;PMS5003;39542;-34.932;138.594;2022-12-24T02:50:22;7.0;7.0;
53634;PMS5003;39542;-34.932;138.594;2022-12-24T02:51:00;7.0;7.0;
53634;PMS5003;39542;-34.932;138.594;2022-12-24T02:51:37;8.0;8.0;
53634;PMS5003;39542;-34.932;138.594;2022-12-24T02:52:26;6.0;6.0;
53634;PMS5003;39542;-34.932;138.594;2022-12-24T02:53:04;8.0;8.0;
53634;PMS5003;39542;-34.932;138.594;2022-12-24T02:53:41;10.0;9.0;
53634;PMS5003;39542;-34.932;138.594;2022-12-24T02:54:16;9.0;7.0;
53634;PMS5003;39542;-34.932;138.594;2022-12-24T02:54:51;8.0;8.0;
53634;PMS5003;39542;-34.932;138.594;2022-12-24T02:55:28;8.0;8.0;
53634;PMS5003;39542;-34.932;138.594;2022-12-24T02:56:16;12.0;11.0;
53634;PMS5003;39542;-34.932;138.594;2022-12-24T02:57:07;10.0;10.0;
53634;PMS5003;39542;-34.932;138.594;2022-12-24T02:58:00;12.0;12.0;
53634;PMS5003;39542;-34.932;138.594;2022-12-24T02:58:51;9.0;8.0;
53634;PMS5003;39542;-34.932;138.594;2022-12-24T02:59:47;11.0;11.0;
53634;PMS5003;39542;-34.932;138.594;2022-12-24T03:00:33;6.0;6.0;
53634;PMS5003;39542;-34.932;138.594;2022-12-24T03:01:23;10.0;9.0;
53634;PMS5003;39542;-34.932;138.594;2022-12-24T03:02:12;7.0;7.0;
53634;PMS5003;39542;-34.932;138.594;2022-12-24T03:03:07;10.0;10.0;
53634;PMS5003;39542;-34.932;138.594;2022-12-24T03:03:58;15.0;13.0;
53634;PMS5003;39542;-34.932;138.594;2022-12-24T03:04:44;6.0;6.0;
53634;PMS5003;39542;-34.932;138.594;2022-12-24T03:05:27;7.0;7.0;
53634;PMS5003;39542;-34.932;138.594;2022-12-24T03:06:08;11.0;8.0;
53634;PMS5003;39542;-34.932;138.594;2022-12-24T03:06:55;9.0;9.0;
53634;PMS5003;39542;-34.932;138.594;2022-12-24T03:07:38;10.0;9.0;
53634;PMS5003;39542;-34.932;138.594;2022-12-24T03:08:27;12.0;12.0;
53634;PMS5003;39542;-34.932;138.594;2022-12-24T03:09:13;9.0;9.0;
53634;PMS5003;39542;-34.932;138.594;2022-12-24T03:09:59;7.0;7.0;
53634;PMS5003;39542;-34.932;138.594;2022-12-24T03:10:45;9.0;9.0;
53634;PMS5003;39542;-34.932;138.594;2022-12-24T03:11:23;8.0;8.0;
53634;PMS5003;39542;-34.932;138.594;2022-12-24T03:11:59;8.0;6.0;
53634;PMS5003;39542;-34.932;138.594;2022-12-24T03:12:40;7.0;7.0;
53634;PMS5003;39542;-34.932;138.594;2022-12-24T03:13:16;7.0;7.0;
53634;PMS5003;39542;-34.932;138.594;2022-12-24T03:13:52;6.0;6.0;
53634;PMS5003;39542;-34.932;138.594;2022-12-24T03:14:29;11.0;10.0;
53634;PMS5003;39542;-34.932;138.594;2022-12-24T03:15:05;7.0;7.0;
53634;PMS5003;39542;-34.932;138.594;2022-12-24T03:15:43;8.0;8.0;
53634;PMS5003;39542;-34.932;138.594;2022-12-24T03:16:22;6.0;6.0;
53634;PMS5003;39542;-34.932;138.594;2022-12-24T03:16:58;6.0;6.0;
53634;PMS5003;39542;-34.932;138.594;2022-12-24T03:17:35;7.0;7.0;
53634;PMS5003;39542;-34.932;138.594;2022-12-24T03:18:13;7.0;7.0;
53634;PMS5003;39542;-34.932;138.594;2022-12-24T03:18:50;6.0;6.0;
53634;PMS5003;39542;-34.932;138.594;2022-12-24T03:19:27;8.0;7.0;
53634;PMS5003;39542;-34.932;138.594;2022-12-24T03:20:04;6.0;6.0;
53634;PMS5003;39542;-34.932;138.594;2022-12-24T03:20:43;4.0;4.0;
53634;PMS5003;39542;-34.932;138.594;2022-12-24T03:21:23;5.0;4.0;
53634;PMS5003;39542;-34.932;138.594;2022-12-24T03:21:59;5.0;5.0;
53634;PMS5003;39542;-34.932;138.594;2022-12-24T03:22:39;5.0;5.0;
53634;PMS5003;39542;-34.932;138.594;2022-12-24T03:23:14;7.0;7.0;
53634;PMS5003;39542;-34.932;138.594;2022-12-24T03:23:49;5.0;5.0;
53634;PMS5003;39542;-34.932;138.594;2022-12-24T03:24:24;5.0;5.0;
53634;PMS5003;39542;-34.932;138.594;2022-12-24T03:24:59;7.0;7.0;
53634;PMS5003;39542;-34.932;138.594;2022-12-24T03:25:38;4.0;4.0;
53634;PMS5003;39542;-34.932;138.594;2022-12-24T03:26:16;6.0;6.0;
53634;PMS5003;39542;-34.932;138.594;2022-12-24T03:26:52;5.0;5.0;
53634;PMS5003;39542;-34.932;138.594;2022-12-24T03:27:27;3.0;3.0;
53634;PMS5003;39542;-34.932;138.594;2022-12-24T03:28:03;5.0;5.0;
53634;PMS5003;39542;-34.932;138.594;2022-12-24T03:28:39;5.0;5.0;
53634;PMS5003;39542;-34.932;138.594;2022-12-24T03:29:14;7.0;7.0;
53634;PMS5003;39542;-34.932;138.594;2022-12-24T03:29:51;10.0;7.0;
53634;PMS5003;39542;-34.932;138.594;2022-12-24T03:30:26;7.0;7.0;
53634;PMS5003;39542;-34.932;138.594;2022-12-24T03:31:02;5.0;5.0;
53634;PMS5003;39542;-34.932;138.594;2022-12-24T03:31:41;4.0;4.0;
53634;PMS5003;39542;-34.932;138.594;2022-12-24T03:32:16;5.0;5.0;
53634;PMS5003;39542;-34.932;138.594;2022-12-24T03:32:59;4.0;4.0;
53634;PMS5003;39542;-34.932;138.594;2022-12-24T03:33:35;4.0;4.0;
53634;PMS5003;39542;-34.932;138.594;2022-12-24T03:34:10;7.0;5.0;
53634;PMS5003;39542;-34.932;138.594;2022-12-24T03:34:46;4.0;4.0;
53634;PMS5003;39542;-34.932;138.594;2022-12-24T03:35:20;5.0;4.0;
53634;PMS5003;39542;-34.932;138.594;2022-12-24T03:35:54;3.0;3.0;
53634;PMS5003;39542;-34.932;138.594;2022-12-24T03:36:30;3.0;3.0;
53634;PMS5003;39542;-34.932;138.594;2022-12-24T03:37:05;4.0;4.0;
53634;PMS5003;39542;-34.932;138.594;2022-12-24T03:37:39;3.0;3.0;
53634;PMS5003;39542;-34.932;138.594;2022-12-24T03:38:14;3.0;3.0;
53634;PMS5003;39542;-34.932;138.594;2022-12-24T03:38:48;2.0;2.0;
53634;PMS5003;39542;-34.932;138.594;2022-12-24T03:39:22;2.0;2.0;
53634;PMS5003;39542;-34.932;138.594;2022-12-24T03:39:57;4.0;4.0;
53634;PMS5003;39542;-34.932;138.594;2022-12-24T03:40:32;4.0;4.0;
53634;PMS5003;39542;-34.932;138.594;2022-12-24T03:41:07;1.0;1.0;
53634;PMS5003;39542;-34.932;138.594;2022-12-24T03:41:42;4.0;3.0;
53634;PMS5003;39542;-34.932;138.594;2022-12-24T03:42:17;3.0;3.0;
53634;PMS5003;39542;-34.932;138.594;2022-12-24T03:42:52;2.0;2.0;
53634;PMS5003;39542;-34.932;138.594;2022-12-24T03:43:27;2.0;2.0;
53634;PMS5003;39542;-34.932;138.594;2022-12-24T03:44:02;3.0;3.0;
53634;PMS5003;39542;-34.932;138.594;2022-12-24T03:44:37;1.0;1.0;
53634;PMS5003;39542;-34.932;138.594;2022-12-24T03:45:12;2.0;2.0;
53634;PMS5003;39542;-34.932;138.594;2022-12-24T03:45:46;3.0;3.0;
53634;PMS5003;39542;-34.932;138.594;2022-12-24T03:46:21;3.0;3.0;
53634;PMS5003;39542;-34.932;138.594;2022-12-24T03:46:57;3.0;3.0;
53634;PMS5003;39542;-34.932;138.594;2022-12-24T03:47:32;3.0;3.0;
53634;PMS5003;39542;-34.932;138.594;2022-12-24T03:48:07;3.0;3.0;
53634;PMS5003;39542;-34.932;138.594;2022-12-24T03:48:41;3.0;3.0;